Louisa, VA

5:59 PM EDT on May 26, 2018 (GMT -0400)
Louisa County-Freeman

Weather History for KLKU - May, 2013

Change the Weather History Date:

Sunday, May 26, 2013

  Actual Average (KOMH) Record (KOMH)
Temperature  
Mean Temperature 57 °F -  
Max Temperature 75 °F 76 °F 93 °F (1953)
Min Temperature 39 °F 56 °F 40 °F (1956)
Degree Days  
Heating Degree Days 8    
Growing Degree Days 7 (Base 50)    
Moisture  
Dew Point 39 °F    
Average Humidity 56    
Maximum Humidity 93    
Minimum Humidity 22    
Precipitation  
Precipitation 0.00 in - - ()
Sea Level Pressure  
Sea Level Pressure 30.19 in    
Wind  
Wind Speed 3 mph (WNW)    
Max Wind Speed 14 mph    
Max Gust Speed 18 mph    
Visibility 10 miles    
Events      
Averages and records for this station are not official NWS values.
T = Trace of Precipitation, MM = Missing Value Source: NWS Daily Summary

Daily Weather History Graph

Daily Weather History Graph

Search for Another Location

Airport or City:

Astronomy

May. 26, 2013 Rise Set
Actual Time 5:53 AM EDT 8:24 PM EDT
Civil Twilight 5:23 AM EDT 8:55 PM EDT
Nautical Twilight 4:45 AM EDT 9:33 PM EDT
Astronomical Twilight 4:03 AM EDT 10:15 PM EDT
Moon 10:10 PM EDT 7:20 AM EDT
Length of Visible Light 15h 32m
Length of Day
14h 31m
Waning Gibbous, 97% of the Moon is Illuminated
May 26
Waning Gibbous
May 31
Last Quarter
Jun 8
New
Jun 16
First Quarter
Jun 23
Full

Hourly Weather History & Observations

Time (EDT) Temp. Windchill Dew Point Humidity Pressure Visibility Wind Dir Wind Speed Gust Speed Precip Events Conditions
12:15 AM 44.6 °F 42.2 °F 39.2 °F 81% 30.19 in 10.0 mi SW 4.6 mph - N/A   Clear
12:35 AM 46.4 °F - 39.2 °F 76% 30.19 in 10.0 mi Calm Calm - N/A   Clear
12:55 AM 46.4 °F 43.5 °F 39.2 °F 76% 30.19 in 10.0 mi West 5.8 mph - N/A   Clear
1:15 AM 42.8 °F - 39.2 °F 87% 30.19 in 10.0 mi Calm Calm - N/A   Clear
1:35 AM 46.4 °F - 39.2 °F 76% 30.19 in 10.0 mi Calm Calm - N/A   Clear
1:55 AM 42.8 °F 41.1 °F 39.2 °F 87% 30.19 in 10.0 mi WSW 3.5 mph - N/A   Clear
2:15 AM 42.8 °F 41.1 °F 39.2 °F 87% 30.19 in 10.0 mi WSW 3.5 mph - N/A   Clear
2:35 AM 44.6 °F 42.2 °F 39.2 °F 81% 30.18 in 10.0 mi West 4.6 mph - N/A   Clear
2:55 AM 44.6 °F - 39.2 °F 81% 30.18 in 10.0 mi Calm Calm - N/A   Clear
3:15 AM 42.8 °F - 39.2 °F 87% 30.18 in 10.0 mi Calm Calm - N/A   Clear
3:35 AM 42.8 °F - 39.2 °F 87% 30.18 in 10.0 mi Calm Calm - N/A   Clear
3:55 AM 42.8 °F - 39.2 °F 87% 30.18 in 10.0 mi Calm Calm - N/A   Clear
4:15 AM 42.8 °F 41.1 °F 39.2 °F 87% 30.18 in 10.0 mi NNW 3.5 mph - N/A   Clear
4:35 AM 48.2 °F - 39.2 °F 71% 30.18 in 10.0 mi North 4.6 mph - N/A   Clear
4:55 AM 41.0 °F - 37.4 °F 87% 30.19 in 10.0 mi Calm Calm - N/A   Clear
5:15 AM 42.8 °F - 39.2 °F 87% 30.19 in 10.0 mi Calm Calm - N/A   Clear
5:35 AM 42.8 °F 40.1 °F 37.4 °F 81% 30.19 in 10.0 mi NNW 4.6 mph - N/A   Clear
5:55 AM 39.2 °F - 37.4 °F 93% 30.20 in 10.0 mi Calm Calm - N/A   Clear
6:15 AM 41.0 °F - 37.4 °F 87% 30.20 in 10.0 mi Calm Calm - N/A   Clear
6:35 AM 39.2 °F - 37.4 °F 93% 30.21 in 10.0 mi Calm Calm - N/A   Clear
6:55 AM 44.6 °F - 42.8 °F 93% 30.21 in 10.0 mi Calm Calm - N/A   Clear
7:15 AM 46.4 °F - 42.8 °F 87% 30.22 in 10.0 mi Calm Calm - N/A   Clear
7:35 AM 53.6 °F - 46.4 °F 77% 30.22 in 10.0 mi Calm Calm - N/A   Clear
7:55 AM 55.4 °F - 44.6 °F 67% 30.22 in 10.0 mi Calm Calm - N/A   Clear
8:15 AM 57.2 °F - 39.2 °F 51% 30.23 in 10.0 mi Calm Calm - N/A   Clear
8:35 AM 59.0 °F - 39.2 °F 48% 30.23 in 10.0 mi Calm Calm - N/A   Clear
8:55 AM 60.8 °F - 39.2 °F 45% 30.24 in 10.0 mi Calm Calm - N/A   Clear
9:15 AM 60.8 °F - 37.4 °F 42% 30.24 in 10.0 mi Calm Calm - N/A   Clear
9:35 AM 62.6 °F - 39.2 °F 42% 30.25 in 10.0 mi West 3.5 mph - N/A   Clear
9:55 AM 62.6 °F - 37.4 °F 39% 30.25 in 10.0 mi SSW 3.5 mph - N/A   Clear
10:15 AM 62.6 °F - 37.4 °F 39% 30.25 in 10.0 mi Calm Calm - N/A   Clear
10:35 AM 64.4 °F - 39.2 °F 40% 30.24 in 10.0 mi Calm Calm - N/A   Clear
10:55 AM 64.4 °F - 37.4 °F 37% 30.23 in 10.0 mi West 8.1 mph - N/A   Clear
11:15 AM 68.0 °F - 35.6 °F 30% 30.23 in 10.0 mi WNW 8.1 mph - N/A   Clear
11:35 AM 66.2 °F - 33.8 °F 30% 30.23 in 10.0 mi North 6.9 mph - N/A   Clear
11:55 AM 66.2 °F - 33.8 °F 30% 30.22 in 10.0 mi Calm Calm - N/A   Clear
12:15 PM 69.8 °F - 33.8 °F 27% 30.22 in 10.0 mi NNW 4.6 mph - N/A   Clear
12:35 PM 69.8 °F - 35.6 °F 28% 30.22 in 10.0 mi WNW 6.9 mph - N/A   Clear
12:55 PM 69.8 °F - 33.8 °F 27% 30.21 in 10.0 mi NNW 3.5 mph - N/A   Clear
1:15 PM 69.8 °F - 33.8 °F 27% 30.20 in 10.0 mi WSW 8.1 mph - N/A   Clear
1:35 PM 69.8 °F - 32.0 °F 25% 30.18 in 10.0 mi Calm Calm - N/A   Clear
1:55 PM 71.6 °F - 35.6 °F 27% 30.18 in 10.0 mi West 13.8 mph 18.4 mph N/A   Clear
2:15 PM 73.4 °F - 35.6 °F 25% 30.17 in 10.0 mi West 12.7 mph - N/A   Clear
2:35 PM 71.6 °F - 33.8 °F 25% 30.16 in 10.0 mi West 6.9 mph - N/A   Clear
2:55 PM 73.4 °F - 35.6 °F 25% 30.16 in 10.0 mi WSW 9.2 mph - N/A   Clear
3:15 PM 73.4 °F - 35.6 °F 25% 30.16 in 10.0 mi West 9.2 mph 18.4 mph N/A   Clear
3:35 PM 73.4 °F - 35.6 °F 25% 30.16 in 10.0 mi West 4.6 mph - N/A   Clear
3:55 PM 73.4 °F - 35.6 °F 25% 30.15 in 10.0 mi WNW 3.5 mph - N/A   Clear
4:15 PM 75.2 °F - 35.6 °F 24% 30.15 in 10.0 mi West 10.4 mph 16.1 mph N/A   Clear
4:35 PM 75.2 °F - 35.6 °F 24% 30.14 in 10.0 mi West 9.2 mph - N/A   Clear
4:55 PM 75.2 °F - 33.8 °F 22% 30.14 in 10.0 mi WNW 6.9 mph - N/A   Clear
5:15 PM 75.2 °F - 35.6 °F 24% 30.13 in 10.0 mi West 5.8 mph - N/A   Clear
5:35 PM 75.2 °F - 35.6 °F 24% 30.13 in 10.0 mi West 6.9 mph - N/A   Clear
5:55 PM 75.2 °F - 35.6 °F 24% 30.13 in 10.0 mi West 8.1 mph - N/A   Clear
6:15 PM 75.2 °F - 33.8 °F 22% 30.13 in 10.0 mi NNW 6.9 mph - N/A   Clear
6:35 PM 75.2 °F - 35.6 °F 24% 30.14 in 10.0 mi NW 3.5 mph - N/A   Clear
6:55 PM 75.2 °F - 35.6 °F 24% 30.14 in 10.0 mi NNW 4.6 mph - N/A   Clear
7:15 PM 73.4 °F - 41.0 °F 31% 30.14 in 10.0 mi NE 3.5 mph - N/A   Clear
7:35 PM 66.2 °F - 46.4 °F 49% 30.14 in 10.0 mi Calm Calm - N/A   Clear
7:55 PM 62.6 °F - 55.4 °F 77% 30.15 in 10.0 mi Calm Calm - N/A   Clear
8:15 PM 59.0 °F - 48.2 °F 67% 30.16 in 10.0 mi Calm Calm - N/A   Clear
8:35 PM 55.4 °F - 48.2 °F 77% 30.16 in 10.0 mi Calm Calm - N/A   Clear
8:55 PM 53.6 °F - 44.6 °F 72% 30.17 in 10.0 mi Calm Calm - N/A   Clear
9:15 PM 51.8 °F - 44.6 °F 76% 30.18 in 10.0 mi Calm Calm - N/A   Clear
9:35 PM 51.8 °F - 44.6 °F 76% 30.18 in 10.0 mi Calm Calm - N/A   Clear
9:55 PM 51.8 °F - 44.6 °F 76% 30.20 in 10.0 mi Calm Calm - N/A   Clear
10:15 PM 51.8 °F - 42.8 °F 71% 30.20 in 10.0 mi Calm Calm - N/A   Clear
10:35 PM 51.8 °F - 42.8 °F 71% 30.21 in 10.0 mi NW 3.5 mph - N/A   Clear
10:55 PM 51.8 °F - 42.8 °F 71% 30.21 in 10.0 mi Calm Calm - N/A   Clear
11:15 PM 51.8 °F - 44.6 °F 76% 30.22 in 10.0 mi Calm Calm - N/A   Clear
11:35 PM 48.2 °F - 42.8 °F 82% 30.22 in 10.0 mi Calm Calm - N/A   Clear
11:55 PM 48.2 °F - 42.8 °F 82% 30.22 in 10.0 mi Calm Calm - N/A   Clear